sensor_id;sensor_type;location;lat;lon;timestamp;P1;durP1;ratioP1;P2;durP2;ratioP2
59950;SDS011;45812;53.540;9.774;2023-03-16T00:00:44;7.40;;;2.28;;
59950;SDS011;45812;53.540;9.774;2023-03-16T00:03:09;5.03;;;2.25;;
59950;SDS011;45812;53.540;9.774;2023-03-16T00:05:35;9.95;;;2.75;;
59950;SDS011;45812;53.540;9.774;2023-03-16T00:08:01;16.73;;;3.25;;
59950;SDS011;45812;53.540;9.774;2023-03-16T00:10:26;10.43;;;3.13;;
59950;SDS011;45812;53.540;9.774;2023-03-16T00:12:52;5.03;;;2.28;;
59950;SDS011;45812;53.540;9.774;2023-03-16T00:15:18;14.45;;;3.15;;
59950;SDS011;45812;53.540;9.774;2023-03-16T00:17:43;6.75;;;3.17;;
59950;SDS011;45812;53.540;9.774;2023-03-16T00:20:12;11.70;;;3.10;;
59950;SDS011;45812;53.540;9.774;2023-03-16T00:22:38;8.88;;;3.00;;
59950;SDS011;45812;53.540;9.774;2023-03-16T00:25:03;7.40;;;2.78;;
59950;SDS011;45812;53.540;9.774;2023-03-16T00:27:29;7.65;;;3.05;;
59950;SDS011;45812;53.540;9.774;2023-03-16T00:29:54;9.02;;;3.13;;
59950;SDS011;45812;53.540;9.774;2023-03-16T00:32:21;7.45;;;2.83;;
59950;SDS011;45812;53.540;9.774;2023-03-16T00:34:49;7.65;;;3.08;;
59950;SDS011;45812;53.540;9.774;2023-03-16T00:37:16;7.47;;;2.95;;
59950;SDS011;45812;53.540;9.774;2023-03-16T00:39:43;10.27;;;3.20;;
59950;SDS011;45812;53.540;9.774;2023-03-16T00:42:10;8.52;;;3.30;;
59950;SDS011;45812;53.540;9.774;2023-03-16T00:44:36;6.88;;;2.55;;
59950;SDS011;45812;53.540;9.774;2023-03-16T00:47:03;4.40;;;2.78;;
59950;SDS011;45812;53.540;9.774;2023-03-16T00:49:29;7.85;;;3.45;;
59950;SDS011;45812;53.540;9.774;2023-03-16T00:51:58;7.13;;;2.75;;
59950;SDS011;45812;53.540;9.774;2023-03-16T00:54:27;6.68;;;3.58;;
59950;SDS011;45812;53.540;9.774;2023-03-16T00:56:53;12.02;;;2.97;;
59950;SDS011;45812;53.540;9.774;2023-03-16T00:59:19;11.75;;;3.60;;
59950;SDS011;45812;53.540;9.774;2023-03-16T01:01:45;9.32;;;3.17;;
59950;SDS011;45812;53.540;9.774;2023-03-16T01:04:11;10.65;;;3.20;;
59950;SDS011;45812;53.540;9.774;2023-03-16T01:06:36;10.43;;;3.15;;
59950;SDS011;45812;53.540;9.774;2023-03-16T01:09:01;8.85;;;3.38;;
59950;SDS011;45812;53.540;9.774;2023-03-16T01:11:29;6.82;;;3.45;;
59950;SDS011;45812;53.540;9.774;2023-03-16T01:13:58;4.78;;;2.58;;
59950;SDS011;45812;53.540;9.774;2023-03-16T01:16:23;4.25;;;2.80;;
59950;SDS011;45812;53.540;9.774;2023-03-16T01:18:49;9.75;;;3.47;;
59950;SDS011;45812;53.540;9.774;2023-03-16T01:21:16;6.45;;;2.80;;
59950;SDS011;45812;53.540;9.774;2023-03-16T01:23:41;8.50;;;3.00;;
59950;SDS011;45812;53.540;9.774;2023-03-16T01:26:08;8.80;;;2.85;;
59950;SDS011;45812;53.540;9.774;2023-03-16T01:28:34;8.18;;;2.65;;
59950;SDS011;45812;53.540;9.774;2023-03-16T01:31:00;13.65;;;3.38;;
59950;SDS011;45812;53.540;9.774;2023-03-16T01:33:30;11.23;;;3.00;;
59950;SDS011;45812;53.540;9.774;2023-03-16T01:35:57;9.57;;;2.42;;
59950;SDS011;45812;53.540;9.774;2023-03-16T01:38:25;7.13;;;3.20;;
59950;SDS011;45812;53.540;9.774;2023-03-16T01:40:51;5.20;;;3.10;;
59950;SDS011;45812;53.540;9.774;2023-03-16T01:43:19;7.10;;;3.38;;
59950;SDS011;45812;53.540;9.774;2023-03-16T01:48:46;7.55;;;3.00;;
59950;SDS011;45812;53.540;9.774;2023-03-16T01:51:45;8.75;;;2.97;;
59950;SDS011;45812;53.540;9.774;2023-03-16T01:54:54;6.78;;;3.40;;
59950;SDS011;45812;53.540;9.774;2023-03-16T01:57:18;7.75;;;3.20;;
59950;SDS011;45812;53.540;9.774;2023-03-16T01:59:59;6.90;;;2.85;;
59950;SDS011;45812;53.540;9.774;2023-03-16T02:02:34;7.15;;;2.75;;
59950;SDS011;45812;53.540;9.774;2023-03-16T02:05:11;8.38;;;2.85;;
59950;SDS011;45812;53.540;9.774;2023-03-16T02:07:42;7.38;;;2.92;;
59950;SDS011;45812;53.540;9.774;2023-03-16T02:10:11;4.45;;;2.80;;
59950;SDS011;45812;53.540;9.774;2023-03-16T02:12:39;4.57;;;2.63;;
59950;SDS011;45812;53.540;9.774;2023-03-16T02:15:04;3.28;;;2.63;;
59950;SDS011;45812;53.540;9.774;2023-03-16T02:17:30;4.03;;;2.72;;
59950;SDS011;45812;53.540;9.774;2023-03-16T02:20:07;7.47;;;3.10;;
59950;SDS011;45812;53.540;9.774;2023-03-16T02:22:44;8.50;;;2.95;;
59950;SDS011;45812;53.540;9.774;2023-03-16T02:25:12;6.75;;;2.55;;
59950;SDS011;45812;53.540;9.774;2023-03-16T02:27:42;13.65;;;3.63;;
59950;SDS011;45812;53.540;9.774;2023-03-16T02:30:29;5.95;;;2.67;;
59950;SDS011;45812;53.540;9.774;2023-03-16T02:32:55;8.18;;;3.30;;
59950;SDS011;45812;53.540;9.774;2023-03-16T02:35:21;4.70;;;2.85;;
59950;SDS011;45812;53.540;9.774;2023-03-16T02:37:46;3.92;;;2.70;;
59950;SDS011;45812;53.540;9.774;2023-03-16T02:40:20;4.30;;;2.53;;
59950;SDS011;45812;53.540;9.774;2023-03-16T02:43:01;4.85;;;2.60;;
59950;SDS011;45812;53.540;9.774;2023-03-16T02:45:36;6.85;;;2.55;;
59950;SDS011;45812;53.540;9.774;2023-03-16T02:48:08;4.28;;;2.80;;
59950;SDS011;45812;53.540;9.774;2023-03-16T02:50:45;5.80;;;2.83;;
59950;SDS011;45812;53.540;9.774;2023-03-16T02:53:12;11.40;;;3.63;;
59950;SDS011;45812;53.540;9.774;2023-03-16T02:55:38;6.93;;;2.92;;
59950;SDS011;45812;53.540;9.774;2023-03-16T02:58:03;4.78;;;2.22;;
59950;SDS011;45812;53.540;9.774;2023-03-16T03:00:29;5.97;;;2.38;;
59950;SDS011;45812;53.540;9.774;2023-03-16T03:02:54;10.50;;;2.80;;
59950;SDS011;45812;53.540;9.774;2023-03-16T03:05:19;3.78;;;2.33;;
59950;SDS011;45812;53.540;9.774;2023-03-16T03:07:45;11.75;;;2.55;;
59950;SDS011;45812;53.540;9.774;2023-03-16T03:10:10;4.20;;;2.45;;
59950;SDS011;45812;53.540;9.774;2023-03-16T03:12:36;6.82;;;2.80;;
59950;SDS011;45812;53.540;9.774;2023-03-16T03:15:01;9.50;;;2.33;;
59950;SDS011;45812;53.540;9.774;2023-03-16T03:17:26;5.68;;;2.53;;
59950;SDS011;45812;53.540;9.774;2023-03-16T03:19:54;4.93;;;2.13;;
59950;SDS011;45812;53.540;9.774;2023-03-16T03:22:23;6.15;;;2.33;;
59950;SDS011;45812;53.540;9.774;2023-03-16T03:24:50;9.32;;;2.92;;
59950;SDS011;45812;53.540;9.774;2023-03-16T03:27:16;7.95;;;2.38;;
59950;SDS011;45812;53.540;9.774;2023-03-16T03:29:41;10.80;;;2.67;;
59950;SDS011;45812;53.540;9.774;2023-03-16T03:32:09;8.23;;;2.63;;
59950;SDS011;45812;53.540;9.774;2023-03-16T03:34:35;5.90;;;2.95;;
59950;SDS011;45812;53.540;9.774;2023-03-16T03:37:01;9.18;;;2.67;;
59950;SDS011;45812;53.540;9.774;2023-03-16T03:39:26;5.43;;;2.53;;
59950;SDS011;45812;53.540;9.774;2023-03-16T03:41:51;7.50;;;2.58;;
59950;SDS011;45812;53.540;9.774;2023-03-16T03:44:22;12.70;;;3.13;;
59950;SDS011;45812;53.540;9.774;2023-03-16T03:46:48;4.40;;;3.00;;
59950;SDS011;45812;53.540;9.774;2023-03-16T03:49:15;4.22;;;2.22;;
59950;SDS011;45812;53.540;9.774;2023-03-16T03:51:40;5.15;;;2.67;;
59950;SDS011;45812;53.540;9.774;2023-03-16T03:54:06;6.38;;;2.33;;
59950;SDS011;45812;53.540;9.774;2023-03-16T03:56:32;3.90;;;2.28;;
59950;SDS011;45812;53.540;9.774;2023-03-16T03:58:57;4.38;;;2.95;;
59950;SDS011;45812;53.540;9.774;2023-03-16T04:01:22;5.40;;;2.80;;
59950;SDS011;45812;53.540;9.774;2023-03-16T04:03:48;7.05;;;3.38;;
59950;SDS011;45812;53.540;9.774;2023-03-16T04:06:14;5.18;;;3.05;;
59950;SDS011;45812;53.540;9.774;2023-03-16T04:08:39;8.27;;;3.05;;
59950;SDS011;45812;53.540;9.774;2023-03-16T04:11:04;11.38;;;3.67;;
59950;SDS011;45812;53.540;9.774;2023-03-16T04:13:29;5.75;;;2.92;;
59950;SDS011;45812;53.540;9.774;2023-03-16T04:16:04;9.07;;;3.58;;
59950;SDS011;45812;53.540;9.774;2023-03-16T04:18:30;10.52;;;3.85;;
59950;SDS011;45812;53.540;9.774;2023-03-16T04:21:05;9.35;;;3.65;;
59950;SDS011;45812;53.540;9.774;2023-03-16T04:23:32;7.43;;;2.65;;
59950;SDS011;45812;53.540;9.774;2023-03-16T04:25:58;6.32;;;3.15;;
59950;SDS011;45812;53.540;9.774;2023-03-16T04:28:23;10.48;;;3.55;;
59950;SDS011;45812;53.540;9.774;2023-03-16T04:30:50;11.85;;;4.60;;
59950;SDS011;45812;53.540;9.774;2023-03-16T04:33:18;10.15;;;3.50;;
59950;SDS011;45812;53.540;9.774;2023-03-16T04:35:43;9.45;;;3.83;;
59950;SDS011;45812;53.540;9.774;2023-03-16T04:38:10;5.55;;;3.22;;
59950;SDS011;45812;53.540;9.774;2023-03-16T04:40:36;6.60;;;3.33;;
59950;SDS011;45812;53.540;9.774;2023-03-16T04:43:01;6.95;;;3.10;;
59950;SDS011;45812;53.540;9.774;2023-03-16T04:45:26;11.68;;;3.78;;
59950;SDS011;45812;53.540;9.774;2023-03-16T04:47:51;8.65;;;3.47;;
59950;SDS011;45812;53.540;9.774;2023-03-16T04:50:17;6.13;;;2.97;;
59950;SDS011;45812;53.540;9.774;2023-03-16T04:52:42;7.32;;;3.10;;
59950;SDS011;45812;53.540;9.774;2023-03-16T04:55:07;4.13;;;2.63;;
59950;SDS011;45812;53.540;9.774;2023-03-16T04:57:33;7.43;;;2.97;;
59950;SDS011;45812;53.540;9.774;2023-03-16T04:59:59;7.45;;;3.17;;
59950;SDS011;45812;53.540;9.774;2023-03-16T05:02:24;6.18;;;2.80;;
59950;SDS011;45812;53.540;9.774;2023-03-16T05:04:50;8.90;;;3.22;;
59950;SDS011;45812;53.540;9.774;2023-03-16T05:07:15;8.73;;;3.05;;
59950;SDS011;45812;53.540;9.774;2023-03-16T05:09:40;7.85;;;3.20;;
59950;SDS011;45812;53.540;9.774;2023-03-16T05:12:06;6.60;;;3.25;;
59950;SDS011;45812;53.540;9.774;2023-03-16T05:14:31;11.10;;;2.88;;
59950;SDS011;45812;53.540;9.774;2023-03-16T05:16:57;6.32;;;3.17;;
59950;SDS011;45812;53.540;9.774;2023-03-16T05:19:22;10.80;;;3.70;;
59950;SDS011;45812;53.540;9.774;2023-03-16T05:21:47;4.72;;;2.25;;
59950;SDS011;45812;53.540;9.774;2023-03-16T05:24:13;7.97;;;3.00;;
59950;SDS011;45812;53.540;9.774;2023-03-16T05:26:38;5.55;;;3.00;;
59950;SDS011;45812;53.540;9.774;2023-03-16T05:29:03;8.05;;;2.92;;
59950;SDS011;45812;53.540;9.774;2023-03-16T05:31:29;12.80;;;4.20;;
59950;SDS011;45812;53.540;9.774;2023-03-16T05:33:57;9.95;;;3.15;;
59950;SDS011;45812;53.540;9.774;2023-03-16T05:36:23;15.13;;;4.40;;
59950;SDS011;45812;53.540;9.774;2023-03-16T05:38:48;5.90;;;2.92;;
59950;SDS011;45812;53.540;9.774;2023-03-16T05:41:14;12.38;;;3.42;;
59950;SDS011;45812;53.540;9.774;2023-03-16T05:43:39;5.28;;;2.85;;
59950;SDS011;45812;53.540;9.774;2023-03-16T05:46:04;4.25;;;2.97;;
59950;SDS011;45812;53.540;9.774;2023-03-16T05:48:30;8.20;;;3.40;;
59950;SDS011;45812;53.540;9.774;2023-03-16T05:50:55;6.57;;;2.78;;
59950;SDS011;45812;53.540;9.774;2023-03-16T05:53:20;8.68;;;3.20;;
59950;SDS011;45812;53.540;9.774;2023-03-16T05:55:52;11.02;;;2.67;;
59950;SDS011;45812;53.540;9.774;2023-03-16T05:58:18;5.90;;;2.72;;
59950;SDS011;45812;53.540;9.774;2023-03-16T06:00:43;4.75;;;2.72;;
59950;SDS011;45812;53.540;9.774;2023-03-16T06:03:08;10.77;;;3.50;;
59950;SDS011;45812;53.540;9.774;2023-03-16T06:05:34;9.48;;;3.47;;
59950;SDS011;45812;53.540;9.774;2023-03-16T06:07:59;5.13;;;2.55;;
59950;SDS011;45812;53.540;9.774;2023-03-16T06:10:25;7.05;;;3.28;;
59950;SDS011;45812;53.540;9.774;2023-03-16T06:12:51;8.60;;;3.10;;
59950;SDS011;45812;53.540;9.774;2023-03-16T06:15:16;6.97;;;2.67;;
59950;SDS011;45812;53.540;9.774;2023-03-16T06:17:42;4.18;;;2.45;;
59950;SDS011;45812;53.540;9.774;2023-03-16T06:20:07;9.57;;;3.22;;
59950;SDS011;45812;53.540;9.774;2023-03-16T06:22:37;9.80;;;2.92;;
59950;SDS011;45812;53.540;9.774;2023-03-16T06:25:05;4.63;;;2.88;;
59950;SDS011;45812;53.540;9.774;2023-03-16T06:27:31;8.07;;;3.00;;
59950;SDS011;45812;53.540;9.774;2023-03-16T06:29:56;5.85;;;2.92;;
59950;SDS011;45812;53.540;9.774;2023-03-16T06:32:22;13.70;;;3.40;;
59950;SDS011;45812;53.540;9.774;2023-03-16T06:34:47;9.43;;;3.10;;
59950;SDS011;45812;53.540;9.774;2023-03-16T06:37:12;5.22;;;2.38;;
59950;SDS011;45812;53.540;9.774;2023-03-16T06:39:38;10.73;;;3.33;;
59950;SDS011;45812;53.540;9.774;2023-03-16T06:42:04;5.25;;;2.90;;
59950;SDS011;45812;53.540;9.774;2023-03-16T06:44:29;7.28;;;3.65;;
59950;SDS011;45812;53.540;9.774;2023-03-16T06:46:55;6.20;;;3.22;;
59950;SDS011;45812;53.540;9.774;2023-03-16T06:49:21;9.90;;;3.05;;
59950;SDS011;45812;53.540;9.774;2023-03-16T06:51:46;6.55;;;3.20;;
59950;SDS011;45812;53.540;9.774;2023-03-16T06:54:11;6.90;;;3.20;;
59950;SDS011;45812;53.540;9.774;2023-03-16T06:56:36;5.20;;;2.90;;
59950;SDS011;45812;53.540;9.774;2023-03-16T06:59:02;9.68;;;3.92;;
59950;SDS011;45812;53.540;9.774;2023-03-16T07:01:27;7.65;;;2.97;;
59950;SDS011;45812;53.540;9.774;2023-03-16T07:03:52;5.85;;;3.00;;
59950;SDS011;45812;53.540;9.774;2023-03-16T07:06:18;4.93;;;2.47;;
59950;SDS011;45812;53.540;9.774;2023-03-16T07:08:43;6.45;;;2.63;;
59950;SDS011;45812;53.540;9.774;2023-03-16T07:11:09;3.83;;;2.70;;
59950;SDS011;45812;53.540;9.774;2023-03-16T07:13:35;5.68;;;2.53;;
59950;SDS011;45812;53.540;9.774;2023-03-16T07:16:00;7.95;;;3.03;;
59950;SDS011;45812;53.540;9.774;2023-03-16T07:18:26;4.97;;;2.70;;
59950;SDS011;45812;53.540;9.774;2023-03-16T07:20:54;5.10;;;2.47;;
59950;SDS011;45812;53.540;9.774;2023-03-16T07:23:19;5.18;;;2.20;;
59950;SDS011;45812;53.540;9.774;2023-03-16T07:25:44;6.40;;;3.08;;
59950;SDS011;45812;53.540;9.774;2023-03-16T07:28:10;3.10;;;2.33;;
59950;SDS011;45812;53.540;9.774;2023-03-16T07:30:36;6.43;;;2.60;;
59950;SDS011;45812;53.540;9.774;2023-03-16T07:33:02;6.72;;;2.78;;
59950;SDS011;45812;53.540;9.774;2023-03-16T07:35:29;10.18;;;3.28;;
59950;SDS011;45812;53.540;9.774;2023-03-16T07:37:54;4.22;;;2.10;;
59950;SDS011;45812;53.540;9.774;2023-03-16T07:40:20;6.65;;;2.70;;
59950;SDS011;45812;53.540;9.774;2023-03-16T07:42:45;4.63;;;2.58;;
59950;SDS011;45812;53.540;9.774;2023-03-16T07:45:10;10.13;;;2.70;;
59950;SDS011;45812;53.540;9.774;2023-03-16T07:47:37;8.70;;;2.97;;
59950;SDS011;45812;53.540;9.774;2023-03-16T07:50:02;5.18;;;2.75;;
59950;SDS011;45812;53.540;9.774;2023-03-16T07:52:28;5.95;;;3.17;;
59950;SDS011;45812;53.540;9.774;2023-03-16T07:54:53;2.97;;;2.58;;
59950;SDS011;45812;53.540;9.774;2023-03-16T07:57:19;4.38;;;2.50;;
59950;SDS011;45812;53.540;9.774;2023-03-16T07:59:44;7.18;;;2.42;;
59950;SDS011;45812;53.540;9.774;2023-03-16T08:02:11;4.32;;;2.60;;
59950;SDS011;45812;53.540;9.774;2023-03-16T08:04:38;2.90;;;1.98;;
59950;SDS011;45812;53.540;9.774;2023-03-16T08:07:06;5.88;;;2.95;;
59950;SDS011;45812;53.540;9.774;2023-03-16T08:09:32;7.75;;;2.55;;
59950;SDS011;45812;53.540;9.774;2023-03-16T08:11:59;3.78;;;2.20;;
59950;SDS011;45812;53.540;9.774;2023-03-16T08:14:25;5.32;;;2.10;;
59950;SDS011;45812;53.540;9.774;2023-03-16T08:16:50;9.32;;;2.50;;
59950;SDS011;45812;53.540;9.774;2023-03-16T08:19:15;5.38;;;2.35;;
59950;SDS011;45812;53.540;9.774;2023-03-16T08:21:41;6.47;;;2.08;;
59950;SDS011;45812;53.540;9.774;2023-03-16T08:24:07;3.97;;;2.55;;
59950;SDS011;45812;53.540;9.774;2023-03-16T08:26:33;4.97;;;2.38;;
59950;SDS011;45812;53.540;9.774;2023-03-16T08:28:58;6.53;;;1.98;;
59950;SDS011;45812;53.540;9.774;2023-03-16T08:31:27;7.50;;;2.35;;
59950;SDS011;45812;53.540;9.774;2023-03-16T08:33:52;6.47;;;2.50;;
59950;SDS011;45812;53.540;9.774;2023-03-16T08:36:18;4.80;;;2.20;;
59950;SDS011;45812;53.540;9.774;2023-03-16T08:38:44;4.03;;;1.83;;
59950;SDS011;45812;53.540;9.774;2023-03-16T08:41:11;5.03;;;2.15;;
59950;SDS011;45812;53.540;9.774;2023-03-16T08:43:36;3.80;;;2.00;;
59950;SDS011;45812;53.540;9.774;2023-03-16T08:46:02;6.35;;;2.40;;
59950;SDS011;45812;53.540;9.774;2023-03-16T08:48:29;6.78;;;1.85;;
59950;SDS011;45812;53.540;9.774;2023-03-16T08:50:55;4.30;;;2.03;;
59950;SDS011;45812;53.540;9.774;2023-03-16T08:53:21;4.43;;;1.35;;
59950;SDS011;45812;53.540;9.774;2023-03-16T08:55:46;4.20;;;1.50;;
59950;SDS011;45812;53.540;9.774;2023-03-16T08:58:12;5.80;;;1.88;;
59950;SDS011;45812;53.540;9.774;2023-03-16T09:00:38;5.03;;;2.70;;
59950;SDS011;45812;53.540;9.774;2023-03-16T09:03:04;3.28;;;1.73;;
59950;SDS011;45812;53.540;9.774;2023-03-16T09:05:30;3.88;;;1.63;;
59950;SDS011;45812;53.540;9.774;2023-03-16T09:07:55;3.17;;;1.60;;
59950;SDS011;45812;53.540;9.774;2023-03-16T09:10:21;4.68;;;2.05;;
59950;SDS011;45812;53.540;9.774;2023-03-16T09:12:47;5.28;;;1.52;;
59950;SDS011;45812;53.540;9.774;2023-03-16T09:15:13;5.40;;;1.73;;
59950;SDS011;45812;53.540;9.774;2023-03-16T09:17:38;3.83;;;1.25;;
59950;SDS011;45812;53.540;9.774;2023-03-16T09:20:05;1.13;;;1.08;;
59950;SDS011;45812;53.540;9.774;2023-03-16T09:22:34;4.90;;;1.67;;
59950;SDS011;45812;53.540;9.774;2023-03-16T09:25:01;2.35;;;1.50;;
59950;SDS011;45812;53.540;9.774;2023-03-16T09:27:27;4.00;;;1.63;;
59950;SDS011;45812;53.540;9.774;2023-03-16T09:29:53;5.80;;;1.67;;
59950;SDS011;45812;53.540;9.774;2023-03-16T09:32:20;3.70;;;1.70;;
59950;SDS011;45812;53.540;9.774;2023-03-16T09:34:45;2.78;;;1.13;;
59950;SDS011;45812;53.540;9.774;2023-03-16T09:37:11;5.30;;;1.65;;
59950;SDS011;45812;53.540;9.774;2023-03-16T09:39:36;4.55;;;1.50;;
59950;SDS011;45812;53.540;9.774;2023-03-16T09:42:04;4.60;;;1.42;;
59950;SDS011;45812;53.540;9.774;2023-03-16T09:44:51;7.15;;;1.45;;
59950;SDS011;45812;53.540;9.774;2023-03-16T09:49:50;4.07;;;1.10;;
59950;SDS011;45812;53.540;9.774;2023-03-16T09:57:42;1.42;;;1.20;;
59950;SDS011;45812;53.540;9.774;2023-03-16T10:02:45;6.85;;;1.85;;
59950;SDS011;45812;53.540;9.774;2023-03-16T10:05:28;0.65;;;0.63;;
59950;SDS011;45812;53.540;9.774;2023-03-16T10:13:17;2.53;;;0.70;;
59950;SDS011;45812;53.540;9.774;2023-03-16T10:15:54;3.08;;;1.00;;
59950;SDS011;45812;53.540;9.774;2023-03-16T10:18:24;2.55;;;0.88;;
59950;SDS011;45812;53.540;9.774;2023-03-16T10:20:53;4.03;;;1.25;;
59950;SDS011;45812;53.540;9.774;2023-03-16T10:23:20;4.25;;;1.23;;
59950;SDS011;45812;53.540;9.774;2023-03-16T10:25:49;0.75;;;0.70;;
59950;SDS011;45812;53.540;9.774;2023-03-16T10:28:17;6.32;;;1.20;;
59950;SDS011;45812;53.540;9.774;2023-03-16T10:30:53;2.45;;;1.20;;
59950;SDS011;45812;53.540;9.774;2023-03-16T10:36:08;3.38;;;0.88;;
59950;SDS011;45812;53.540;9.774;2023-03-16T10:47:04;1.30;;;0.73;;
59950;SDS011;45812;53.540;9.774;2023-03-16T10:49:38;5.72;;;1.88;;
59950;SDS011;45812;53.540;9.774;2023-03-16T10:52:17;4.10;;;1.30;;
59950;SDS011;45812;53.540;9.774;2023-03-16T10:54:52;2.60;;;1.50;;
59950;SDS011;45812;53.540;9.774;2023-03-16T10:57:39;5.68;;;1.30;;
59950;SDS011;45812;53.540;9.774;2023-03-16T11:02:35;4.10;;;1.33;;
59950;SDS011;45812;53.540;9.774;2023-03-16T11:08:01;1.35;;;0.88;;
59950;SDS011;45812;53.540;9.774;2023-03-16T11:10:40;1.67;;;0.90;;
59950;SDS011;45812;53.540;9.774;2023-03-16T11:13:10;2.65;;;0.95;;
59950;SDS011;45812;53.540;9.774;2023-03-16T11:15:39;2.15;;;1.13;;
59950;SDS011;45812;53.540;9.774;2023-03-16T11:18:15;1.60;;;0.52;;
59950;SDS011;45812;53.540;9.774;2023-03-16T11:20:50;1.90;;;0.45;;
59950;SDS011;45812;53.540;9.774;2023-03-16T11:23:16;3.20;;;1.08;;
59950;SDS011;45812;53.540;9.774;2023-03-16T11:25:49;2.83;;;0.88;;
59950;SDS011;45812;53.540;9.774;2023-03-16T11:28:31;4.53;;;1.48;;
59950;SDS011;45812;53.540;9.774;2023-03-16T11:33:44;1.60;;;0.82;;
59950;SDS011;45812;53.540;9.774;2023-03-16T11:38:42;1.38;;;0.98;;
59950;SDS011;45812;53.540;9.774;2023-03-16T11:46:52;3.72;;;1.40;;
59950;SDS011;45812;53.540;9.774;2023-03-16T11:49:41;2.30;;;1.00;;
59950;SDS011;45812;53.540;9.774;2023-03-16T11:52:35;4.03;;;1.00;;
59950;SDS011;45812;53.540;9.774;2023-03-16T11:58:46;2.35;;;0.98;;
59950;SDS011;45812;53.540;9.774;2023-03-16T12:01:15;1.63;;;1.13;;
59950;SDS011;45812;53.540;9.774;2023-03-16T12:04:01;5.40;;;1.15;;
59950;SDS011;45812;53.540;9.774;2023-03-16T12:09:50;3.30;;;1.00;;
59950;SDS011;45812;53.540;9.774;2023-03-16T12:12:38;1.98;;;1.08;;
59950;SDS011;45812;53.540;9.774;2023-03-16T12:15:38;1.42;;;0.85;;
59950;SDS011;45812;53.540;9.774;2023-03-16T12:20:46;2.70;;;1.40;;
59950;SDS011;45812;53.540;9.774;2023-03-16T12:23:18;1.90;;;1.00;;
59950;SDS011;45812;53.540;9.774;2023-03-16T12:25:49;5.75;;;1.20;;
59950;SDS011;45812;53.540;9.774;2023-03-16T12:28:23;4.85;;;1.15;;
59950;SDS011;45812;53.540;9.774;2023-03-16T12:36:23;5.70;;;1.38;;
59950;SDS011;45812;53.540;9.774;2023-03-16T12:47:31;5.75;;;1.45;;
59950;SDS011;45812;53.540;9.774;2023-03-16T12:50:07;4.40;;;1.17;;
59950;SDS011;45812;53.540;9.774;2023-03-16T12:52:41;2.42;;;0.90;;
59950;SDS011;45812;53.540;9.774;2023-03-16T12:55:19;3.95;;;0.88;;
59950;SDS011;45812;53.540;9.774;2023-03-16T12:57:49;2.60;;;1.10;;
59950;SDS011;45812;53.540;9.774;2023-03-16T13:00:30;3.22;;;0.98;;
59950;SDS011;45812;53.540;9.774;2023-03-16T13:02:59;1.73;;;0.90;;
59950;SDS011;45812;53.540;9.774;2023-03-16T13:05:27;3.17;;;0.98;;
59950;SDS011;45812;53.540;9.774;2023-03-16T13:08:12;1.55;;;0.90;;
59950;SDS011;45812;53.540;9.774;2023-03-16T13:10:39;1.25;;;1.15;;
59950;SDS011;45812;53.540;9.774;2023-03-16T13:13:06;2.53;;;0.95;;
59950;SDS011;45812;53.540;9.774;2023-03-16T13:15:35;4.50;;;1.58;;
59950;SDS011;45812;53.540;9.774;2023-03-16T13:20:33;2.03;;;0.75;;
59950;SDS011;45812;53.540;9.774;2023-03-16T13:25:43;3.92;;;1.23;;
59950;SDS011;45812;53.540;9.774;2023-03-16T13:28:13;3.55;;;1.15;;
59950;SDS011;45812;53.540;9.774;2023-03-16T13:30:44;1.02;;;0.73;;
59950;SDS011;45812;53.540;9.774;2023-03-16T13:33:19;2.80;;;1.38;;
59950;SDS011;45812;53.540;9.774;2023-03-16T13:35:48;6.90;;;1.02;;
59950;SDS011;45812;53.540;9.774;2023-03-16T13:38:15;4.43;;;0.90;;
59950;SDS011;45812;53.540;9.774;2023-03-16T13:40:46;2.58;;;1.00;;
59950;SDS011;45812;53.540;9.774;2023-03-16T13:43:14;0.47;;;0.47;;
59950;SDS011;45812;53.540;9.774;2023-03-16T13:45:41;2.33;;;1.10;;
59950;SDS011;45812;53.540;9.774;2023-03-16T13:48:10;3.42;;;0.90;;
59950;SDS011;45812;53.540;9.774;2023-03-16T13:50:39;2.55;;;1.05;;
59950;SDS011;45812;53.540;9.774;2023-03-16T13:53:17;0.88;;;0.57;;
59950;SDS011;45812;53.540;9.774;2023-03-16T13:55:48;1.25;;;0.90;;
59950;SDS011;45812;53.540;9.774;2023-03-16T13:58:21;0.82;;;0.73;;
59950;SDS011;45812;53.540;9.774;2023-03-16T14:00:53;2.95;;;1.10;;
59950;SDS011;45812;53.540;9.774;2023-03-16T14:03:20;2.25;;;1.10;;
59950;SDS011;45812;53.540;9.774;2023-03-16T14:05:46;2.47;;;1.13;;
59950;SDS011;45812;53.540;9.774;2023-03-16T14:08:16;1.33;;;0.93;;
59950;SDS011;45812;53.540;9.774;2023-03-16T14:10:44;3.20;;;0.95;;
59950;SDS011;45812;53.540;9.774;2023-03-16T14:18:37;4.38;;;0.93;;
59950;SDS011;45812;53.540;9.774;2023-03-16T14:21:09;2.22;;;0.90;;
59950;SDS011;45812;53.540;9.774;2023-03-16T14:23:39;3.00;;;1.30;;
59950;SDS011;45812;53.540;9.774;2023-03-16T14:26:12;2.65;;;1.02;;
59950;SDS011;45812;53.540;9.774;2023-03-16T14:29:03;2.72;;;0.88;;
59950;SDS011;45812;53.540;9.774;2023-03-16T14:31:34;2.80;;;1.02;;
59950;SDS011;45812;53.540;9.774;2023-03-16T14:34:02;7.38;;;1.60;;
59950;SDS011;45812;53.540;9.774;2023-03-16T14:36:36;2.13;;;0.95;;
59950;SDS011;45812;53.540;9.774;2023-03-16T14:39:13;4.57;;;1.02;;
59950;SDS011;45812;53.540;9.774;2023-03-16T14:41:40;1.75;;;0.80;;
59950;SDS011;45812;53.540;9.774;2023-03-16T14:44:13;4.50;;;1.00;;
59950;SDS011;45812;53.540;9.774;2023-03-16T14:46:42;2.22;;;0.82;;
59950;SDS011;45812;53.540;9.774;2023-03-16T14:49:13;3.40;;;1.45;;
59950;SDS011;45812;53.540;9.774;2023-03-16T14:51:40;1.37;;;0.80;;
59950;SDS011;45812;53.540;9.774;2023-03-16T14:54:13;5.13;;;1.25;;
59950;SDS011;45812;53.540;9.774;2023-03-16T14:56:40;3.30;;;1.10;;
59950;SDS011;45812;53.540;9.774;2023-03-16T14:59:06;1.50;;;0.80;;
59950;SDS011;45812;53.540;9.774;2023-03-16T15:01:32;2.90;;;1.20;;
59950;SDS011;45812;53.540;9.774;2023-03-16T15:03:58;2.80;;;1.27;;
59950;SDS011;45812;53.540;9.774;2023-03-16T15:06:23;1.65;;;1.02;;
59950;SDS011;45812;53.540;9.774;2023-03-16T15:08:49;3.72;;;1.58;;
59950;SDS011;45812;53.540;9.774;2023-03-16T15:11:14;1.58;;;1.10;;
59950;SDS011;45812;53.540;9.774;2023-03-16T15:13:45;1.65;;;0.82;;
59950;SDS011;45812;53.540;9.774;2023-03-16T15:16:11;4.68;;;0.90;;
59950;SDS011;45812;53.540;9.774;2023-03-16T15:18:37;2.63;;;1.20;;
59950;SDS011;45812;53.540;9.774;2023-03-16T15:21:08;2.92;;;1.48;;
59950;SDS011;45812;53.540;9.774;2023-03-16T15:23:36;1.38;;;0.93;;
59950;SDS011;45812;53.540;9.774;2023-03-16T15:26:02;3.13;;;1.23;;
59950;SDS011;45812;53.540;9.774;2023-03-16T15:28:31;1.02;;;0.88;;
59950;SDS011;45812;53.540;9.774;2023-03-16T15:30:57;1.90;;;0.75;;
59950;SDS011;45812;53.540;9.774;2023-03-16T15:33:24;1.33;;;0.73;;
59950;SDS011;45812;53.540;9.774;2023-03-16T15:35:51;2.15;;;0.98;;
59950;SDS011;45812;53.540;9.774;2023-03-16T15:38:26;4.38;;;0.85;;
59950;SDS011;45812;53.540;9.774;2023-03-16T15:40:53;3.80;;;1.08;;
59950;SDS011;45812;53.540;9.774;2023-03-16T15:43:21;1.10;;;0.85;;
59950;SDS011;45812;53.540;9.774;2023-03-16T15:45:48;2.17;;;0.52;;
59950;SDS011;45812;53.540;9.774;2023-03-16T15:48:15;1.10;;;1.00;;
59950;SDS011;45812;53.540;9.774;2023-03-16T15:50:43;1.77;;;0.85;;
59950;SDS011;45812;53.540;9.774;2023-03-16T15:53:14;1.10;;;0.60;;
59950;SDS011;45812;53.540;9.774;2023-03-16T15:55:47;2.80;;;0.70;;
59950;SDS011;45812;53.540;9.774;2023-03-16T16:00:49;2.47;;;0.90;;
59950;SDS011;45812;53.540;9.774;2023-03-16T16:03:15;1.77;;;0.98;;
59950;SDS011;45812;53.540;9.774;2023-03-16T16:05:41;5.28;;;1.23;;
59950;SDS011;45812;53.540;9.774;2023-03-16T16:08:06;3.42;;;0.60;;
59950;SDS011;45812;53.540;9.774;2023-03-16T16:10:32;3.00;;;0.63;;
59950;SDS011;45812;53.540;9.774;2023-03-16T16:12:58;3.38;;;0.90;;
59950;SDS011;45812;53.540;9.774;2023-03-16T16:15:29;3.28;;;1.05;;